sensor_id;sensor_type;location;lat;lon;timestamp;temperature;humidity
11838;DHT22;5978;51.020;6.764;2023-08-06T00:00:13;16.30;99.90
11838;DHT22;5978;51.020;6.764;2023-08-06T00:02:38;16.30;99.90
11838;DHT22;5978;51.020;6.764;2023-08-06T00:05:04;16.30;99.90
11838;DHT22;5978;51.020;6.764;2023-08-06T00:07:30;16.30;99.90
11838;DHT22;5978;51.020;6.764;2023-08-06T00:09:55;16.30;99.90
11838;DHT22;5978;51.020;6.764;2023-08-06T00:12:21;16.30;99.90
11838;DHT22;5978;51.020;6.764;2023-08-06T00:14:50;16.30;99.90
11838;DHT22;5978;51.020;6.764;2023-08-06T00:17:16;16.20;99.90
11838;DHT22;5978;51.020;6.764;2023-08-06T00:19:42;16.30;99.90
11838;DHT22;5978;51.020;6.764;2023-08-06T00:22:07;16.20;99.90
11838;DHT22;5978;51.020;6.764;2023-08-06T00:24:34;16.20;99.90
11838;DHT22;5978;51.020;6.764;2023-08-06T00:26:59;16.10;99.90
11838;DHT22;5978;51.020;6.764;2023-08-06T00:29:25;16.00;99.90
11838;DHT22;5978;51.020;6.764;2023-08-06T00:31:50;16.00;99.90
11838;DHT22;5978;51.020;6.764;2023-08-06T00:34:16;16.00;99.90
11838;DHT22;5978;51.020;6.764;2023-08-06T00:36:42;16.00;99.90
11838;DHT22;5978;51.020;6.764;2023-08-06T00:39:08;15.90;99.90
11838;DHT22;5978;51.020;6.764;2023-08-06T00:41:33;16.00;99.90
11838;DHT22;5978;51.020;6.764;2023-08-06T00:43:59;15.90;99.90
11838;DHT22;5978;51.020;6.764;2023-08-06T00:46:24;16.00;99.90
11838;DHT22;5978;51.020;6.764;2023-08-06T00:48:51;16.00;99.90
11838;DHT22;5978;51.020;6.764;2023-08-06T00:51:16;16.00;99.90
11838;DHT22;5978;51.020;6.764;2023-08-06T00:53:42;16.00;99.90
11838;DHT22;5978;51.020;6.764;2023-08-06T00:56:09;16.00;99.90
11838;DHT22;5978;51.020;6.764;2023-08-06T00:58:35;16.00;99.90
11838;DHT22;5978;51.020;6.764;2023-08-06T01:01:01;16.00;99.90
11838;DHT22;5978;51.020;6.764;2023-08-06T01:03:27;16.00;99.90
11838;DHT22;5978;51.020;6.764;2023-08-06T01:05:52;15.90;99.90
11838;DHT22;5978;51.020;6.764;2023-08-06T01:11:11;16.00;99.90
11838;DHT22;5978;51.020;6.764;2023-08-06T01:16:09;16.00;99.90
11838;DHT22;5978;51.020;6.764;2023-08-06T01:18:36;16.00;99.90
11838;DHT22;5978;51.020;6.764;2023-08-06T01:21:04;16.00;99.90
11838;DHT22;5978;51.020;6.764;2023-08-06T01:23:30;16.00;99.90
11838;DHT22;5978;51.020;6.764;2023-08-06T01:28:56;16.00;99.90
11838;DHT22;5978;51.020;6.764;2023-08-06T01:31:47;16.00;99.90
11838;DHT22;5978;51.020;6.764;2023-08-06T01:34:24;16.00;99.90
11838;DHT22;5978;51.020;6.764;2023-08-06T01:36:51;15.90;99.90
11838;DHT22;5978;51.020;6.764;2023-08-06T01:39:17;15.80;99.90
11838;DHT22;5978;51.020;6.764;2023-08-06T01:41:46;15.80;99.90
11838;DHT22;5978;51.020;6.764;2023-08-06T01:44:12;15.80;99.90
11838;DHT22;5978;51.020;6.764;2023-08-06T01:46:37;15.80;99.90
11838;DHT22;5978;51.020;6.764;2023-08-06T01:49:21;15.80;99.90
11838;DHT22;5978;51.020;6.764;2023-08-06T01:52:05;15.90;99.90
11838;DHT22;5978;51.020;6.764;2023-08-06T01:54:31;15.80;99.90
11838;DHT22;5978;51.020;6.764;2023-08-06T01:56:56;15.80;99.90
11838;DHT22;5978;51.020;6.764;2023-08-06T01:59:24;15.90;99.90
11838;DHT22;5978;51.020;6.764;2023-08-06T02:01:49;15.90;99.90
11838;DHT22;5978;51.020;6.764;2023-08-06T02:04:15;15.90;99.90
11838;DHT22;5978;51.020;6.764;2023-08-06T02:06:40;15.80;99.90
11838;DHT22;5978;51.020;6.764;2023-08-06T02:09:06;15.80;99.90
11838;DHT22;5978;51.020;6.764;2023-08-06T02:11:31;15.80;99.90
11838;DHT22;5978;51.020;6.764;2023-08-06T02:13:57;15.70;99.90
11838;DHT22;5978;51.020;6.764;2023-08-06T02:16:22;15.70;99.90
11838;DHT22;5978;51.020;6.764;2023-08-06T02:18:48;15.70;99.90
11838;DHT22;5978;51.020;6.764;2023-08-06T02:21:13;15.70;99.90
11838;DHT22;5978;51.020;6.764;2023-08-06T02:23:39;15.70;99.90
11838;DHT22;5978;51.020;6.764;2023-08-06T02:26:04;15.60;99.90
11838;DHT22;5978;51.020;6.764;2023-08-06T02:28:31;15.60;99.90
11838;DHT22;5978;51.020;6.764;2023-08-06T02:30:56;15.70;99.90
11838;DHT22;5978;51.020;6.764;2023-08-06T02:33:22;15.70;99.90
11838;DHT22;5978;51.020;6.764;2023-08-06T02:35:48;15.70;99.90
11838;DHT22;5978;51.020;6.764;2023-08-06T02:38:14;15.70;99.90
11838;DHT22;5978;51.020;6.764;2023-08-06T02:40:46;15.80;99.90
11838;DHT22;5978;51.020;6.764;2023-08-06T02:43:13;15.80;99.90
11838;DHT22;5978;51.020;6.764;2023-08-06T02:45:39;15.80;99.90
11838;DHT22;5978;51.020;6.764;2023-08-06T02:48:04;15.80;99.90
11838;DHT22;5978;51.020;6.764;2023-08-06T02:50:30;15.80;99.90
11838;DHT22;5978;51.020;6.764;2023-08-06T02:52:58;15.90;99.90
11838;DHT22;5978;51.020;6.764;2023-08-06T02:55:24;15.90;99.90
11838;DHT22;5978;51.020;6.764;2023-08-06T02:57:49;16.00;99.90
11838;DHT22;5978;51.020;6.764;2023-08-06T03:00:15;16.00;99.90
11838;DHT22;5978;51.020;6.764;2023-08-06T03:02:40;16.10;99.90
11838;DHT22;5978;51.020;6.764;2023-08-06T03:05:06;16.10;99.90
11838;DHT22;5978;51.020;6.764;2023-08-06T03:07:32;16.10;99.90
11838;DHT22;5978;51.020;6.764;2023-08-06T03:09:59;16.10;99.90
11838;DHT22;5978;51.020;6.764;2023-08-06T03:12:27;16.10;99.90
11838;DHT22;5978;51.020;6.764;2023-08-06T03:14:52;16.10;99.90
11838;DHT22;5978;51.020;6.764;2023-08-06T03:17:18;16.10;99.90
11838;DHT22;5978;51.020;6.764;2023-08-06T03:20:17;16.10;99.90
11838;DHT22;5978;51.020;6.764;2023-08-06T03:22:43;16.10;99.90
11838;DHT22;5978;51.020;6.764;2023-08-06T03:25:08;16.10;99.90
11838;DHT22;5978;51.020;6.764;2023-08-06T03:27:34;16.10;99.90
11838;DHT22;5978;51.020;6.764;2023-08-06T03:30:00;16.00;99.90
11838;DHT22;5978;51.020;6.764;2023-08-06T03:32:26;16.00;99.90
11838;DHT22;5978;51.020;6.764;2023-08-06T03:34:53;15.90;99.90
11838;DHT22;5978;51.020;6.764;2023-08-06T03:37:18;15.90;99.90
11838;DHT22;5978;51.020;6.764;2023-08-06T03:39:44;15.90;99.90
11838;DHT22;5978;51.020;6.764;2023-08-06T03:42:09;16.00;99.90
11838;DHT22;5978;51.020;6.764;2023-08-06T03:44:35;15.90;99.90
11838;DHT22;5978;51.020;6.764;2023-08-06T03:47:00;15.80;99.90
11838;DHT22;5978;51.020;6.764;2023-08-06T03:49:26;15.80;99.90
11838;DHT22;5978;51.020;6.764;2023-08-06T03:51:51;15.70;99.90
11838;DHT22;5978;51.020;6.764;2023-08-06T03:54:17;15.70;99.90
11838;DHT22;5978;51.020;6.764;2023-08-06T03:56:42;15.70;99.90
11838;DHT22;5978;51.020;6.764;2023-08-06T03:59:08;15.60;99.90
11838;DHT22;5978;51.020;6.764;2023-08-06T04:01:34;15.50;99.90
11838;DHT22;5978;51.020;6.764;2023-08-06T04:03:59;15.40;99.90
11838;DHT22;5978;51.020;6.764;2023-08-06T04:06:25;15.40;99.90
11838;DHT22;5978;51.020;6.764;2023-08-06T04:08:50;15.40;99.90
11838;DHT22;5978;51.020;6.764;2023-08-06T04:11:16;15.40;99.90
11838;DHT22;5978;51.020;6.764;2023-08-06T04:13:44;15.40;99.90
11838;DHT22;5978;51.020;6.764;2023-08-06T04:16:10;15.40;99.90
11838;DHT22;5978;51.020;6.764;2023-08-06T04:18:36;15.40;99.90
11838;DHT22;5978;51.020;6.764;2023-08-06T04:21:02;15.40;99.90
11838;DHT22;5978;51.020;6.764;2023-08-06T04:23:27;15.50;99.90
11838;DHT22;5978;51.020;6.764;2023-08-06T04:25:56;15.50;99.90
11838;DHT22;5978;51.020;6.764;2023-08-06T04:28:22;15.50;99.90
11838;DHT22;5978;51.020;6.764;2023-08-06T04:30:48;15.50;99.90
11838;DHT22;5978;51.020;6.764;2023-08-06T04:33:13;15.50;99.90
11838;DHT22;5978;51.020;6.764;2023-08-06T04:35:39;15.50;99.90
11838;DHT22;5978;51.020;6.764;2023-08-06T04:38:05;15.50;99.90
11838;DHT22;5978;51.020;6.764;2023-08-06T04:40:33;15.40;99.90
11838;DHT22;5978;51.020;6.764;2023-08-06T04:42:59;15.50;99.90
11838;DHT22;5978;51.020;6.764;2023-08-06T04:45:26;15.50;99.90
11838;DHT22;5978;51.020;6.764;2023-08-06T04:47:51;15.60;99.90
11838;DHT22;5978;51.020;6.764;2023-08-06T04:50:17;15.60;99.90
11838;DHT22;5978;51.020;6.764;2023-08-06T04:52:42;15.60;99.90
11838;DHT22;5978;51.020;6.764;2023-08-06T04:55:08;15.70;99.90
11838;DHT22;5978;51.020;6.764;2023-08-06T04:57:34;15.70;99.90
11838;DHT22;5978;51.020;6.764;2023-08-06T04:59:59;15.70;99.90
11838;DHT22;5978;51.020;6.764;2023-08-06T05:02:25;15.90;99.90
11838;DHT22;5978;51.020;6.764;2023-08-06T05:04:50;16.00;99.90
11838;DHT22;5978;51.020;6.764;2023-08-06T05:07:16;16.00;99.90
11838;DHT22;5978;51.020;6.764;2023-08-06T05:09:41;16.10;99.90
11838;DHT22;5978;51.020;6.764;2023-08-06T05:12:07;16.10;99.90
11838;DHT22;5978;51.020;6.764;2023-08-06T05:14:33;16.20;99.90
11838;DHT22;5978;51.020;6.764;2023-08-06T05:16:58;16.20;99.90
11838;DHT22;5978;51.020;6.764;2023-08-06T05:19:24;16.20;99.90
11838;DHT22;5978;51.020;6.764;2023-08-06T05:21:49;16.20;99.90
11838;DHT22;5978;51.020;6.764;2023-08-06T05:24:15;16.30;99.90
11838;DHT22;5978;51.020;6.764;2023-08-06T05:26:40;16.30;99.90
11838;DHT22;5978;51.020;6.764;2023-08-06T05:29:06;16.30;99.90
11838;DHT22;5978;51.020;6.764;2023-08-06T05:31:31;16.50;99.90
11838;DHT22;5978;51.020;6.764;2023-08-06T05:33:57;16.50;99.90
11838;DHT22;5978;51.020;6.764;2023-08-06T05:36:22;16.60;99.90
11838;DHT22;5978;51.020;6.764;2023-08-06T05:38:48;16.50;99.90
11838;DHT22;5978;51.020;6.764;2023-08-06T05:41:13;16.50;99.90
11838;DHT22;5978;51.020;6.764;2023-08-06T05:43:39;16.50;99.90
11838;DHT22;5978;51.020;6.764;2023-08-06T05:46:04;16.50;99.90
11838;DHT22;5978;51.020;6.764;2023-08-06T05:48:30;16.50;99.90
11838;DHT22;5978;51.020;6.764;2023-08-06T05:50:57;16.40;99.90
11838;DHT22;5978;51.020;6.764;2023-08-06T05:53:22;16.40;99.90
11838;DHT22;5978;51.020;6.764;2023-08-06T05:55:48;16.50;99.90
11838;DHT22;5978;51.020;6.764;2023-08-06T05:58:14;16.50;99.90
11838;DHT22;5978;51.020;6.764;2023-08-06T06:00:39;16.50;99.90
11838;DHT22;5978;51.020;6.764;2023-08-06T06:03:05;16.60;99.90
11838;DHT22;5978;51.020;6.764;2023-08-06T06:05:30;16.70;99.90
11838;DHT22;5978;51.020;6.764;2023-08-06T06:07:56;16.80;99.90
11838;DHT22;5978;51.020;6.764;2023-08-06T06:10:21;16.70;99.90
11838;DHT22;5978;51.020;6.764;2023-08-06T06:12:47;16.80;99.90
11838;DHT22;5978;51.020;6.764;2023-08-06T06:15:12;16.90;99.90
11838;DHT22;5978;51.020;6.764;2023-08-06T06:17:39;16.90;99.90
11838;DHT22;5978;51.020;6.764;2023-08-06T06:20:05;17.00;99.90
11838;DHT22;5978;51.020;6.764;2023-08-06T06:22:30;17.00;99.90
11838;DHT22;5978;51.020;6.764;2023-08-06T06:24:56;17.10;99.90
11838;DHT22;5978;51.020;6.764;2023-08-06T06:27:22;17.20;99.90
11838;DHT22;5978;51.020;6.764;2023-08-06T06:29:47;17.10;99.90
11838;DHT22;5978;51.020;6.764;2023-08-06T06:32:13;17.10;99.90
11838;DHT22;5978;51.020;6.764;2023-08-06T06:34:38;17.10;99.90
11838;DHT22;5978;51.020;6.764;2023-08-06T06:37:04;17.10;99.90
11838;DHT22;5978;51.020;6.764;2023-08-06T06:39:30;17.20;99.90
11838;DHT22;5978;51.020;6.764;2023-08-06T06:41:55;17.30;99.90
11838;DHT22;5978;51.020;6.764;2023-08-06T06:44:21;17.40;99.90
11838;DHT22;5978;51.020;6.764;2023-08-06T06:46:46;17.30;99.90
11838;DHT22;5978;51.020;6.764;2023-08-06T06:49:12;17.40;99.90
11838;DHT22;5978;51.020;6.764;2023-08-06T06:51:37;17.40;99.90
11838;DHT22;5978;51.020;6.764;2023-08-06T06:54:03;17.50;99.90
11838;DHT22;5978;51.020;6.764;2023-08-06T06:56:29;17.50;99.90
11838;DHT22;5978;51.020;6.764;2023-08-06T06:58:54;17.50;99.90
11838;DHT22;5978;51.020;6.764;2023-08-06T07:01:20;17.40;99.90
11838;DHT22;5978;51.020;6.764;2023-08-06T07:03:46;17.30;99.90
11838;DHT22;5978;51.020;6.764;2023-08-06T07:06:11;17.30;99.90
11838;DHT22;5978;51.020;6.764;2023-08-06T07:08:38;17.40;99.90
11838;DHT22;5978;51.020;6.764;2023-08-06T07:11:04;17.40;99.90
11838;DHT22;5978;51.020;6.764;2023-08-06T07:13:31;17.50;99.90
11838;DHT22;5978;51.020;6.764;2023-08-06T07:15:57;17.60;99.90
11838;DHT22;5978;51.020;6.764;2023-08-06T07:18:23;17.50;99.90
11838;DHT22;5978;51.020;6.764;2023-08-06T07:20:52;17.50;99.90
11838;DHT22;5978;51.020;6.764;2023-08-06T07:23:20;17.50;99.90
11838;DHT22;5978;51.020;6.764;2023-08-06T07:25:46;17.50;99.90
11838;DHT22;5978;51.020;6.764;2023-08-06T07:28:13;17.50;99.90
11838;DHT22;5978;51.020;6.764;2023-08-06T07:30:39;17.40;99.90
11838;DHT22;5978;51.020;6.764;2023-08-06T07:33:05;17.50;99.90
11838;DHT22;5978;51.020;6.764;2023-08-06T07:35:31;17.60;99.90
11838;DHT22;5978;51.020;6.764;2023-08-06T07:37:57;17.50;99.90
11838;DHT22;5978;51.020;6.764;2023-08-06T07:40:23;17.50;99.90
11838;DHT22;5978;51.020;6.764;2023-08-06T07:42:48;17.40;99.90
11838;DHT22;5978;51.020;6.764;2023-08-06T07:45:14;17.40;99.90
11838;DHT22;5978;51.020;6.764;2023-08-06T07:47:40;17.50;99.90
11838;DHT22;5978;51.020;6.764;2023-08-06T07:50:06;17.50;99.90
11838;DHT22;5978;51.020;6.764;2023-08-06T07:52:31;17.60;99.90
11838;DHT22;5978;51.020;6.764;2023-08-06T07:54:57;17.70;99.90
11838;DHT22;5978;51.020;6.764;2023-08-06T07:57:22;17.70;99.90
11838;DHT22;5978;51.020;6.764;2023-08-06T07:59:48;17.90;99.90
11838;DHT22;5978;51.020;6.764;2023-08-06T08:02:13;17.90;99.90
11838;DHT22;5978;51.020;6.764;2023-08-06T08:04:54;18.10;99.90
11838;DHT22;5978;51.020;6.764;2023-08-06T08:07:20;18.10;99.90
11838;DHT22;5978;51.020;6.764;2023-08-06T08:09:46;18.10;99.90
11838;DHT22;5978;51.020;6.764;2023-08-06T08:12:13;17.90;99.90
11838;DHT22;5978;51.020;6.764;2023-08-06T08:14:39;17.90;99.90
11838;DHT22;5978;51.020;6.764;2023-08-06T08:17:05;17.80;99.90
11838;DHT22;5978;51.020;6.764;2023-08-06T08:19:31;17.70;99.90
11838;DHT22;5978;51.020;6.764;2023-08-06T08:21:57;17.70;99.90
11838;DHT22;5978;51.020;6.764;2023-08-06T08:24:23;17.80;99.90
11838;DHT22;5978;51.020;6.764;2023-08-06T08:26:52;18.00;99.90
11838;DHT22;5978;51.020;6.764;2023-08-06T08:29:21;18.00;99.90
11838;DHT22;5978;51.020;6.764;2023-08-06T08:31:47;18.20;99.90
11838;DHT22;5978;51.020;6.764;2023-08-06T08:34:15;18.20;99.90
11838;DHT22;5978;51.020;6.764;2023-08-06T08:36:40;18.20;99.90
11838;DHT22;5978;51.020;6.764;2023-08-06T08:39:06;18.30;99.90
11838;DHT22;5978;51.020;6.764;2023-08-06T08:41:33;18.40;99.90
11838;DHT22;5978;51.020;6.764;2023-08-06T08:43:59;18.50;99.90
11838;DHT22;5978;51.020;6.764;2023-08-06T08:46:36;18.60;99.90
11838;DHT22;5978;51.020;6.764;2023-08-06T08:49:03;18.50;99.90
11838;DHT22;5978;51.020;6.764;2023-08-06T08:51:30;18.40;99.90
11838;DHT22;5978;51.020;6.764;2023-08-06T08:53:56;18.50;99.90
11838;DHT22;5978;51.020;6.764;2023-08-06T08:56:23;18.80;99.90
11838;DHT22;5978;51.020;6.764;2023-08-06T08:58:49;19.00;99.90
11838;DHT22;5978;51.020;6.764;2023-08-06T09:01:15;19.10;99.90
11838;DHT22;5978;51.020;6.764;2023-08-06T09:03:41;19.20;99.90
11838;DHT22;5978;51.020;6.764;2023-08-06T09:06:08;19.30;99.90
11838;DHT22;5978;51.020;6.764;2023-08-06T09:08:39;19.40;99.90
11838;DHT22;5978;51.020;6.764;2023-08-06T09:11:09;19.50;99.90
11838;DHT22;5978;51.020;6.764;2023-08-06T09:13:37;19.80;99.90
11838;DHT22;5978;51.020;6.764;2023-08-06T09:16:05;20.00;99.90
11838;DHT22;5978;51.020;6.764;2023-08-06T09:18:31;20.10;99.90
11838;DHT22;5978;51.020;6.764;2023-08-06T09:20:57;20.10;99.90
11838;DHT22;5978;51.020;6.764;2023-08-06T09:23:32;20.10;99.90
11838;DHT22;5978;51.020;6.764;2023-08-06T09:25:59;20.20;99.90
11838;DHT22;5978;51.020;6.764;2023-08-06T09:28:36;20.50;99.90
11838;DHT22;5978;51.020;6.764;2023-08-06T09:31:03;20.80;99.90
11838;DHT22;5978;51.020;6.764;2023-08-06T09:33:29;21.40;99.90
11838;DHT22;5978;51.020;6.764;2023-08-06T09:35:55;21.70;99.90
11838;DHT22;5978;51.020;6.764;2023-08-06T09:38:21;21.10;99.90
11838;DHT22;5978;51.020;6.764;2023-08-06T09:40:47;20.50;99.90
11838;DHT22;5978;51.020;6.764;2023-08-06T09:43:12;19.90;99.90
11838;DHT22;5978;51.020;6.764;2023-08-06T09:45:39;19.10;99.90
11838;DHT22;5978;51.020;6.764;2023-08-06T09:48:06;18.60;99.90
11838;DHT22;5978;51.020;6.764;2023-08-06T09:50:34;18.10;99.90
11838;DHT22;5978;51.020;6.764;2023-08-06T09:53:05;17.70;99.90
11838;DHT22;5978;51.020;6.764;2023-08-06T09:55:32;17.60;99.90
11838;DHT22;5978;51.020;6.764;2023-08-06T09:57:58;17.70;99.90
11838;DHT22;5978;51.020;6.764;2023-08-06T10:00:24;17.50;99.90
11838;DHT22;5978;51.020;6.764;2023-08-06T10:02:51;17.60;99.90
11838;DHT22;5978;51.020;6.764;2023-08-06T10:05:21;17.70;99.90
11838;DHT22;5978;51.020;6.764;2023-08-06T10:07:47;17.50;99.90
11838;DHT22;5978;51.020;6.764;2023-08-06T10:10:14;17.30;99.90
11838;DHT22;5978;51.020;6.764;2023-08-06T10:12:49;17.00;99.90
11838;DHT22;5978;51.020;6.764;2023-08-06T10:15:17;16.70;99.90
11838;DHT22;5978;51.020;6.764;2023-08-06T10:17:47;16.50;99.90
11838;DHT22;5978;51.020;6.764;2023-08-06T10:20:15;16.30;99.90
11838;DHT22;5978;51.020;6.764;2023-08-06T10:22:44;16.20;99.90
11838;DHT22;5978;51.020;6.764;2023-08-06T10:25:10;16.10;99.90
11838;DHT22;5978;51.020;6.764;2023-08-06T10:27:41;16.00;99.90
11838;DHT22;5978;51.020;6.764;2023-08-06T10:30:29;16.00;99.90
11838;DHT22;5978;51.020;6.764;2023-08-06T10:32:56;15.80;99.90
11838;DHT22;5978;51.020;6.764;2023-08-06T10:36:00;15.70;99.90
11838;DHT22;5978;51.020;6.764;2023-08-06T10:38:26;15.70;99.90
11838;DHT22;5978;51.020;6.764;2023-08-06T10:43:34;15.50;99.90
11838;DHT22;5978;51.020;6.764;2023-08-06T10:46:02;15.40;99.90
11838;DHT22;5978;51.020;6.764;2023-08-06T10:51:20;15.30;99.90
11838;DHT22;5978;51.020;6.764;2023-08-06T10:53:52;15.30;99.90
11838;DHT22;5978;51.020;6.764;2023-08-06T10:56:19;15.30;99.90
11838;DHT22;5978;51.020;6.764;2023-08-06T10:58:46;15.30;99.90
11838;DHT22;5978;51.020;6.764;2023-08-06T11:01:12;15.30;99.90
11838;DHT22;5978;51.020;6.764;2023-08-06T11:03:38;15.30;99.90
11838;DHT22;5978;51.020;6.764;2023-08-06T11:06:07;15.20;99.90
11838;DHT22;5978;51.020;6.764;2023-08-06T11:08:37;15.20;99.90
11838;DHT22;5978;51.020;6.764;2023-08-06T11:11:13;15.20;99.90
11838;DHT22;5978;51.020;6.764;2023-08-06T11:13:47;15.30;99.90
11838;DHT22;5978;51.020;6.764;2023-08-06T11:16:17;15.30;99.90
11838;DHT22;5978;51.020;6.764;2023-08-06T11:18:43;15.30;99.90
11838;DHT22;5978;51.020;6.764;2023-08-06T11:21:10;15.30;99.90
11838;DHT22;5978;51.020;6.764;2023-08-06T11:23:39;15.40;99.90
11838;DHT22;5978;51.020;6.764;2023-08-06T11:26:05;15.40;99.90
11838;DHT22;5978;51.020;6.764;2023-08-06T11:28:31;15.60;99.90
11838;DHT22;5978;51.020;6.764;2023-08-06T11:30:58;15.70;99.90
11838;DHT22;5978;51.020;6.764;2023-08-06T11:33:27;15.80;99.90
11838;DHT22;5978;51.020;6.764;2023-08-06T11:35:57;15.90;99.90
11838;DHT22;5978;51.020;6.764;2023-08-06T11:38:28;16.10;99.90
11838;DHT22;5978;51.020;6.764;2023-08-06T11:40:54;16.20;99.90
11838;DHT22;5978;51.020;6.764;2023-08-06T11:43:20;16.30;99.90
11838;DHT22;5978;51.020;6.764;2023-08-06T11:45:48;16.20;99.90
11838;DHT22;5978;51.020;6.764;2023-08-06T11:48:14;16.30;99.90
11838;DHT22;5978;51.020;6.764;2023-08-06T11:50:39;16.30;99.90
11838;DHT22;5978;51.020;6.764;2023-08-06T11:53:05;16.30;99.90
11838;DHT22;5978;51.020;6.764;2023-08-06T11:55:31;16.50;99.90
11838;DHT22;5978;51.020;6.764;2023-08-06T11:57:58;16.50;99.90
11838;DHT22;5978;51.020;6.764;2023-08-06T12:00:26;16.60;99.90
11838;DHT22;5978;51.020;6.764;2023-08-06T12:02:52;16.60;99.90
11838;DHT22;5978;51.020;6.764;2023-08-06T12:05:19;16.60;99.90
11838;DHT22;5978;51.020;6.764;2023-08-06T12:07:54;16.70;99.90
11838;DHT22;5978;51.020;6.764;2023-08-06T12:10:22;16.80;99.90
11838;DHT22;5978;51.020;6.764;2023-08-06T12:12:47;16.70;99.90
11838;DHT22;5978;51.020;6.764;2023-08-06T12:15:14;16.90;99.90
11838;DHT22;5978;51.020;6.764;2023-08-06T12:17:39;16.80;99.90
11838;DHT22;5978;51.020;6.764;2023-08-06T12:20:06;16.90;99.90
11838;DHT22;5978;51.020;6.764;2023-08-06T12:22:33;16.90;99.90
11838;DHT22;5978;51.020;6.764;2023-08-06T12:25:08;16.80;99.90
11838;DHT22;5978;51.020;6.764;2023-08-06T12:27:36;16.80;99.90
11838;DHT22;5978;51.020;6.764;2023-08-06T12:30:03;16.70;99.90
11838;DHT22;5978;51.020;6.764;2023-08-06T12:32:29;16.80;99.90
11838;DHT22;5978;51.020;6.764;2023-08-06T12:34:55;16.90;99.90
11838;DHT22;5978;51.020;6.764;2023-08-06T12:37:21;16.90;99.90
11838;DHT22;5978;51.020;6.764;2023-08-06T12:39:46;16.80;99.90
11838;DHT22;5978;51.020;6.764;2023-08-06T12:42:12;16.90;99.90
11838;DHT22;5978;51.020;6.764;2023-08-06T12:44:38;16.90;99.90
11838;DHT22;5978;51.020;6.764;2023-08-06T12:47:04;16.90;99.90
11838;DHT22;5978;51.020;6.764;2023-08-06T12:49:29;16.90;99.90
11838;DHT22;5978;51.020;6.764;2023-08-06T12:51:57;17.00;99.90
11838;DHT22;5978;51.020;6.764;2023-08-06T12:54:23;17.10;99.90
11838;DHT22;5978;51.020;6.764;2023-08-06T12:56:49;17.10;99.90
11838;DHT22;5978;51.020;6.764;2023-08-06T12:59:16;17.40;99.90
11838;DHT22;5978;51.020;6.764;2023-08-06T13:01:42;17.60;99.90
11838;DHT22;5978;51.020;6.764;2023-08-06T13:04:08;17.60;99.90
11838;DHT22;5978;51.020;6.764;2023-08-06T13:06:34;17.80;99.90
11838;DHT22;5978;51.020;6.764;2023-08-06T13:09:08;17.80;99.90
11838;DHT22;5978;51.020;6.764;2023-08-06T13:11:35;17.80;99.90
11838;DHT22;5978;51.020;6.764;2023-08-06T13:14:19;17.80;99.90
11838;DHT22;5978;51.020;6.764;2023-08-06T13:16:46;17.90;99.90
11838;DHT22;5978;51.020;6.764;2023-08-06T13:19:12;17.90;99.90
11838;DHT22;5978;51.020;6.764;2023-08-06T13:24:06;17.60;99.90
11838;DHT22;5978;51.020;6.764;2023-08-06T13:26:32;17.40;99.90
11838;DHT22;5978;51.020;6.764;2023-08-06T13:28:59;17.20;99.90
11838;DHT22;5978;51.020;6.764;2023-08-06T13:32:02;16.80;99.90
11838;DHT22;5978;51.020;6.764;2023-08-06T13:34:27;16.70;99.90
11838;DHT22;5978;51.020;6.764;2023-08-06T13:36:53;16.50;99.90
11838;DHT22;5978;51.020;6.764;2023-08-06T13:39:19;16.40;99.90
11838;DHT22;5978;51.020;6.764;2023-08-06T13:41:45;16.30;99.90
11838;DHT22;5978;51.020;6.764;2023-08-06T13:44:11;16.50;99.90
11838;DHT22;5978;51.020;6.764;2023-08-06T13:46:39;16.70;99.90
11838;DHT22;5978;51.020;6.764;2023-08-06T13:49:04;17.00;99.90
11838;DHT22;5978;51.020;6.764;2023-08-06T13:51:30;17.30;99.90
11838;DHT22;5978;51.020;6.764;2023-08-06T13:53:56;17.50;99.90
11838;DHT22;5978;51.020;6.764;2023-08-06T13:56:23;17.60;99.90
11838;DHT22;5978;51.020;6.764;2023-08-06T13:58:49;17.80;99.90
11838;DHT22;5978;51.020;6.764;2023-08-06T14:01:17;17.90;99.90
11838;DHT22;5978;51.020;6.764;2023-08-06T14:03:44;17.90;99.90
11838;DHT22;5978;51.020;6.764;2023-08-06T14:06:09;18.00;99.90
11838;DHT22;5978;51.020;6.764;2023-08-06T14:08:35;18.20;99.90
11838;DHT22;5978;51.020;6.764;2023-08-06T14:11:01;18.20;99.90
11838;DHT22;5978;51.020;6.764;2023-08-06T14:13:26;18.00;99.90
11838;DHT22;5978;51.020;6.764;2023-08-06T14:15:52;17.70;99.90
11838;DHT22;5978;51.020;6.764;2023-08-06T14:18:17;17.40;99.90
11838;DHT22;5978;51.020;6.764;2023-08-06T14:20:44;17.20;99.90
11838;DHT22;5978;51.020;6.764;2023-08-06T14:23:09;17.00;99.90
11838;DHT22;5978;51.020;6.764;2023-08-06T14:25:36;16.70;99.90
11838;DHT22;5978;51.020;6.764;2023-08-06T14:28:01;16.50;99.90
11838;DHT22;5978;51.020;6.764;2023-08-06T14:30:27;16.60;99.90
11838;DHT22;5978;51.020;6.764;2023-08-06T14:32:52;16.70;99.90
11838;DHT22;5978;51.020;6.764;2023-08-06T14:35:18;16.80;99.90
11838;DHT22;5978;51.020;6.764;2023-08-06T14:37:44;16.80;99.90
11838;DHT22;5978;51.020;6.764;2023-08-06T14:40:11;16.80;99.90
11838;DHT22;5978;51.020;6.764;2023-08-06T14:42:36;16.80;99.90
11838;DHT22;5978;51.020;6.764;2023-08-06T14:45:02;16.80;99.90
11838;DHT22;5978;51.020;6.764;2023-08-06T14:47:29;16.80;99.90
11838;DHT22;5978;51.020;6.764;2023-08-06T14:49:54;17.10;99.90
11838;DHT22;5978;51.020;6.764;2023-08-06T14:52:20;17.30;99.90
11838;DHT22;5978;51.020;6.764;2023-08-06T14:54:45;17.40;99.90
11838;DHT22;5978;51.020;6.764;2023-08-06T14:57:12;17.50;99.90
11838;DHT22;5978;51.020;6.764;2023-08-06T14:59:39;17.60;99.90
11838;DHT22;5978;51.020;6.764;2023-08-06T15:02:06;17.70;99.90
11838;DHT22;5978;51.020;6.764;2023-08-06T15:04:31;17.70;99.90
11838;DHT22;5978;51.020;6.764;2023-08-06T15:06:57;17.70;99.90
11838;DHT22;5978;51.020;6.764;2023-08-06T15:09:53;17.60;99.90
11838;DHT22;5978;51.020;6.764;2023-08-06T15:12:21;17.70;99.90
11838;DHT22;5978;51.020;6.764;2023-08-06T15:14:48;17.60;99.90
11838;DHT22;5978;51.020;6.764;2023-08-06T15:17:19;17.90;99.90
11838;DHT22;5978;51.020;6.764;2023-08-06T15:20:19;18.30;99.90
11838;DHT22;5978;51.020;6.764;2023-08-06T15:22:45;18.40;99.90
11838;DHT22;5978;51.020;6.764;2023-08-06T15:25:10;18.20;99.90
11838;DHT22;5978;51.020;6.764;2023-08-06T15:27:36;18.00;99.90
11838;DHT22;5978;51.020;6.764;2023-08-06T15:30:03;17.90;99.90
11838;DHT22;5978;51.020;6.764;2023-08-06T15:32:29;17.90;99.90
11838;DHT22;5978;51.020;6.764;2023-08-06T15:34:54;17.80;99.90
11838;DHT22;5978;51.020;6.764;2023-08-06T15:37:21;17.80;99.90
11838;DHT22;5978;51.020;6.764;2023-08-06T15:39:47;17.50;99.90
11838;DHT22;5978;51.020;6.764;2023-08-06T15:42:13;17.50;99.90
11838;DHT22;5978;51.020;6.764;2023-08-06T15:44:40;17.30;99.90
11838;DHT22;5978;51.020;6.764;2023-08-06T15:47:05;17.30;99.90
11838;DHT22;5978;51.020;6.764;2023-08-06T15:49:31;17.10;99.90
11838;DHT22;5978;51.020;6.764;2023-08-06T15:51:56;16.90;99.90
11838;DHT22;5978;51.020;6.764;2023-08-06T15:54:22;16.90;99.90
11838;DHT22;5978;51.020;6.764;2023-08-06T15:56:47;16.80;99.90
11838;DHT22;5978;51.020;6.764;2023-08-06T15:59:27;16.70;99.90